Terminal Aerodrome Forecast
Issued by NWS

Home | Current Version | Previous Version | Text Only | Print | Product List | Glossary On
Versions: 1 2 3 4 5 6 7 8 9 10 11 12 13 14 15 16 17
000
FTAK31 PANC 261742
TAFACD
TAF
PACD 261742Z 2618/2718 15013KT P6SM FEW015 SCT150
     FM262100 20011G20KT P6SM SCT015 OVC040
     FM270400 25014G24KT P6SM SCT015 OVC022
     FM270900 28012G24KT P6SM VCSH SCT008 OVC025=

USA.gov is the U.S. government's official web portal to all federal, state and local government web resources and services.